Time;durP1;ratioP1;P1;durP2;ratioP2;P2;SDS_P1;SDS_P2;PMS_P1;PMS_P2;Temp;Humidity;BMP_temperature;BMP_pressure;BME280_temperature;BME280_humidity;BME280_pressure;Samples;Min_cycle;Max_cycle;Signal;HPM_P1;HPM_P2
2023/09/23 00:07:01;;;;;;;13.80;11.80;;;;;;;17.88;81.76;97789.43;435306;1266;111316;-41
2023/09/23 00:17:08;;;;;;;20.60;10.90;;;;;;;17.41;81.92;97799.29;435152;1266;107395;-41
2023/09/23 00:27:15;;;;;;;14.70;10.20;;;;;;;17.18;82.30;97815.87;435123;1258;99349;-42
2023/09/23 00:47:30;;;;;;;11.20;10.00;;;;;;;16.69;82.52;97833.64;435028;1258;99868;-43
2023/09/23 00:57:36;;;;;;;10.40;8.40;;;;;;;16.46;82.73;97860.19;435235;1257;111213;-42
2023/09/23 01:28:00;;;;;;;4.00;2.20;;;;;;;15.91;83.53;97872.80;435094;1258;107590;-42
2023/09/23 01:38:06;;;;;;;3.80;1.70;;;;;;;15.70;83.81;97880.55;435160;1256;99246;-43
2023/09/23 01:48:13;;;;;;;1.30;1.20;;;;;;;15.66;83.67;97889.44;435177;1257;111472;-44
2023/09/23 01:58:19;;;;;;;1.90;1.80;;;;;;;15.63;84.15;97879.74;435088;1255;108092;-42
2023/09/23 02:08:27;;;;;;;1.40;1.20;;;;;;;15.60;84.05;97883.65;434160;1258;98069;-43
2023/09/23 02:38:48;;;;;;;6.00;1.50;;;;;;;15.65;84.15;97869.88;434072;1258;111632;-44
2023/09/23 03:49:34;;;;;;;2.70;1.70;;;;;;;15.64;84.26;97980.52;434130;1254;99281;-42
2023/09/23 03:59:41;;;;;;;4.10;1.80;;;;;;;15.57;84.27;98009.10;434041;1258;107662;-42
2023/09/23 04:09:49;;;;;;;1.50;1.40;;;;;;;15.54;84.16;98023.40;434182;1258;99234;-42
2023/09/23 04:40:09;;;;;;;1.40;1.20;;;;;;;15.44;84.54;98014.36;434216;1255;99288;-45
2023/09/23 05:10:30;;;;;;;1.60;1.50;;;;;;;15.41;84.64;98069.10;434031;1259;113454;-41
2023/09/23 05:20:37;;;;;;;2.10;1.90;;;;;;;15.52;84.86;98072.98;434073;1258;108464;-41
2023/09/23 05:30:44;;;;;;;3.40;2.50;;;;;;;15.57;84.79;98070.72;433928;1256;99330;-41
2023/09/23 05:51:03;;;;;;;4.60;4.10;;;;;;;15.57;84.75;98111.06;434049;1258;98851;-42
2023/09/23 06:01:12;;;;;;;6.50;4.20;;;;;;;15.57;84.79;98121.30;434134;1258;111221;-41
2023/09/23 06:11:20;;;;;;;4.90;4.50;;;;;;;15.67;84.83;98128.48;434213;1258;107608;-43
2023/09/23 06:31:33;;;;;;;5.60;4.90;;;;;;;15.57;84.99;98173.59;433979;1258;109552;-42
2023/09/23 06:41:39;;;;;;;6.90;5.60;;;;;;;15.65;84.99;98176.14;434032;1254;98850;-42
2023/09/23 06:51:47;;;;;;;5.90;5.20;;;;;;;15.82;85.05;98182.98;434124;1258;110226;-46
2023/09/23 07:01:55;;;;;;;8.30;6.10;;;;;;;16.01;85.11;98190.88;433931;1272;107581;-41
2023/09/23 07:12:01;;;;;;;6.90;5.90;;;;;;;16.10;84.91;98202.90;433750;1258;98817;-42
2023/09/23 07:22:06;;;;;;;7.30;6.50;;;;;;;16.11;84.92;98226.91;434119;1258;107947;-40
2023/09/23 07:32:12;;;;;;;6.70;5.60;;;;;;;16.12;84.81;98249.23;433909;1258;99228;-41
2023/09/23 07:42:18;;;;;;;5.90;5.30;;;;;;;16.13;84.76;98251.52;433926;1258;111671;-42
2023/09/23 07:52:25;;;;;;;6.80;4.80;;;;;;;16.09;85.00;98268.67;433804;1258;108390;-43
2023/09/23 08:02:33;;;;;;;5.10;4.60;;;;;;;16.19;85.17;98266.22;433731;1258;99910;-42
2023/09/23 08:12:40;;;;;;;5.70;5.20;;;;;;;16.32;85.02;98264.39;433992;1259;106933;-42
2023/09/23 08:32:53;;;;;;;5.30;4.20;;;;;;;16.25;85.01;98287.79;433928;1258;110991;-42
2023/09/23 08:43:05;;;;;;;6.00;4.40;;;;;;;16.15;85.17;98296.34;433866;1256;108221;-42
2023/09/23 08:53:14;;;;;;;5.40;4.90;;;;;;;16.19;85.03;98302.55;434030;1255;99214;-42
2023/09/23 09:03:22;;;;;;;5.10;4.60;;;;;;;16.38;85.20;98302.14;434078;1258;106656;-42
2023/09/23 09:13:31;;;;;;;4.70;3.10;;;;;;;16.52;84.80;98311.29;433949;1254;99209;-42
2023/09/23 09:33:49;;;;;;;3.40;3.10;;;;;;;16.88;84.92;98331.81;433935;1258;107703;-42
2023/09/23 09:54:05;;;;;;;3.60;2.40;;;;;;;17.11;84.24;98340.15;433942;1258;106108;-42
2023/09/23 10:14:17;;;;;;;3.20;3.00;;;;;;;17.65;83.94;98342.78;433876;1258;111837;-42
2023/09/23 10:24:27;;;;;;;6.40;3.10;;;;;;;17.89;83.85;98351.51;433999;1256;108700;-41
2023/09/23 10:34:32;;;;;;;5.90;2.90;;;;;;;18.15;83.13;98337.14;433913;1258;99231;-42
2023/09/23 10:55:04;;;;;;;1.50;1.40;;;;;;;18.29;82.67;98317.70;433879;1259;102173;-42
2023/09/23 11:05:11;;;;;;;1.80;1.60;;;;;;;18.07;81.84;98335.47;433969;1258;110487;-42
2023/09/23 11:45:39;;;;;;;3.30;2.10;;;;;;;17.57;80.61;98393.55;433920;1256;99207;-42
2023/09/23 11:55:47;;;;;;;4.10;1.80;;;;;;;17.50;80.39;98400.02;434022;1256;110934;-41
2023/09/23 12:05:54;;;;;;;3.30;1.70;;;;;;;17.52;80.52;98405.79;433874;1258;108738;-44
2023/09/23 12:16:01;;;;;;;3.10;2.50;;;;;;;17.44;80.66;98400.39;433876;1259;99314;-41
2023/09/23 12:36:16;;;;;;;3.60;2.60;;;;;;;17.34;80.72;98403.57;433664;1267;294784;-42
2023/09/23 12:46:24;;;;;;;5.10;2.30;;;;;;;17.24;80.86;98401.44;433898;1258;112117;-42
2023/09/23 12:56:31;;;;;;;5.90;2.70;;;;;;;17.13;81.07;98397.03;433936;1263;108215;-42
2023/09/23 13:06:38;;;;;;;7.30;4.20;;;;;;;17.09;81.46;98412.45;434006;1256;98756;-43
2023/09/23 13:16:46;;;;;;;4.00;3.30;;;;;;;17.12;81.90;98423.45;434068;1259;106679;-42
2023/09/23 13:26:56;;;;;;;7.00;4.10;;;;;;;17.17;82.10;98429.77;434003;1268;99240;-42
2023/09/23 13:37:03;;;;;;;5.20;3.60;;;;;;;17.15;82.22;98435.81;433733;1258;112046;-41
2023/09/23 13:47:10;;;;;;;7.00;3.50;;;;;;;16.97;82.44;98454.45;433822;1256;108762;-41
2023/09/23 13:57:18;;;;;;;3.60;2.80;;;;;;;16.89;82.53;98471.70;433723;1258;99753;-46
2023/09/23 14:07:25;;;;;;;5.30;3.10;;;;;;;16.88;82.64;98476.30;434008;1259;107865;-43
2023/09/23 14:17:32;;;;;;;4.10;2.70;;;;;;;16.84;82.90;98471.94;433908;1258;99269;-43
2023/09/23 14:27:40;;;;;;;4.30;3.10;;;;;;;16.78;82.88;98488.35;433792;1259;112950;-43
2023/09/23 14:37:47;;;;;;;6.80;3.20;;;;;;;16.73;82.90;98508.27;433537;1267;108707;-43
2023/09/23 14:47:54;;;;;;;7.50;5.50;;;;;;;16.68;83.09;98522.82;433879;1258;99364;-44
2023/09/23 14:58:02;;;;;;;9.00;5.80;;;;;;;16.76;83.61;98533.11;433816;1267;108731;-42
2023/09/23 15:08:08;;;;;;;8.60;6.00;;;;;;;16.88;83.69;98544.29;433774;1267;98838;-41
2023/09/23 15:28:22;;;;;;;7.10;4.70;;;;;;;16.63;83.67;98564.20;433744;1258;108025;-42
2023/09/23 15:38:32;;;;;;;10.90;5.40;;;;;;;16.57;84.03;98566.13;433970;1267;99242;-42
2023/09/23 15:58:45;;;;;;;9.10;4.80;;;;;;;16.45;84.15;98580.82;433829;1269;99224;-42
2023/09/23 16:08:53;;;;;;;9.20;7.20;;;;;;;16.44;84.64;98602.60;433946;1260;112230;-42
2023/09/23 16:19:00;;;;;;;12.20;8.70;;;;;;;16.31;84.40;98625.86;434066;1260;108659;-41
2023/09/23 16:29:07;;;;;;;9.90;6.60;;;;;;;16.21;84.84;98641.39;434022;1254;99311;-41
2023/09/23 16:59:26;;;;;;;7.50;5.40;;;;;;;15.94;85.09;98642.38;434014;1259;111260;-41
2023/09/23 17:19:37;;;;;;;12.50;7.20;;;;;;;15.86;85.27;98690.83;434054;1255;99199;-43
2023/09/23 17:29:45;;;;;;;13.90;9.70;;;;;;;15.74;85.43;98699.69;434001;1261;109570;-41
2023/09/23 17:39:52;;;;;;;13.70;7.50;;;;;;;15.63;85.50;98715.80;434006;1268;99236;-43
2023/09/23 17:49:59;;;;;;;7.90;7.10;;;;;;;15.62;85.81;98722.35;434170;1268;113651;-42
2023/09/23 18:00:10;;;;;;;10.20;7.40;;;;;;;15.63;85.98;98729.04;433958;1254;108412;-42
2023/09/23 18:10:16;;;;;;;6.00;5.30;;;;;;;15.54;85.71;98742.45;434124;1254;99250;-41
2023/09/23 19:00:48;;;;;;;8.90;7.70;;;;;;;14.98;85.72;98823.88;434087;1254;99254;-41
2023/09/23 19:21:01;;;;;;;10.30;6.30;;;;;;;14.83;85.80;98852.70;433832;1261;99272;-43
2023/09/23 19:31:09;;;;;;;12.10;8.20;;;;;;;14.92;85.99;98848.16;434045;1260;111791;-42
2023/09/23 19:41:15;;;;;;;13.80;8.90;;;;;;;14.96;86.10;98861.63;433973;1254;108193;-42
2023/09/23 20:01:27;;;;;;;11.40;6.20;;;;;;;14.77;85.89;98873.36;434037;1254;108049;-42
2023/09/23 20:11:33;;;;;;;8.60;6.00;;;;;;;14.74;85.90;98870.08;434084;1260;99267;-42
2023/09/23 20:41:52;;;;;;;9.00;5.00;;;;;;;14.56;85.83;98885.86;434107;1259;99304;-42
2023/09/23 20:51:58;;;;;;;6.00;5.00;;;;;;;14.57;85.80;98893.00;434107;1259;107931;-42
2023/09/23 21:12:13;;;;;;;7.10;4.70;;;;;;;14.49;85.49;98896.20;434223;1258;111368;-42
2023/09/23 21:22:19;;;;;;;8.60;3.90;;;;;;;14.29;85.21;98916.30;434005;1254;108455;-41
2023/09/23 21:32:26;;;;;;;10.40;3.20;;;;;;;14.19;85.17;98930.17;434072;1258;98021;-44
2023/09/23 21:42:34;;;;;;;6.10;2.90;;;;;;;14.18;85.29;98945.88;434273;1258;107151;-41
2023/09/23 21:52:41;;;;;;;6.60;3.30;;;;;;;14.00;85.26;98967.59;434154;1254;99064;-42
2023/09/23 22:02:48;;;;;;;3.20;1.80;;;;;;;13.90;85.14;98969.98;434218;1258;112676;-41
2023/09/23 22:12:56;;;;;;;7.90;2.60;;;;;;;13.79;85.06;98980.15;434038;1258;108169;-42
2023/09/23 22:33:09;;;;;;;4.20;2.80;;;;;;;13.59;85.11;98977.96;434271;1258;109461;-42
2023/09/23 22:43:17;;;;;;;6.30;3.00;;;;;;;13.37;84.74;98983.21;434063;1258;99256;-43
2023/09/23 22:53:23;;;;;;;9.60;2.50;;;;;;;13.24;84.71;98980.27;434055;1255;111317;-41
2023/09/23 23:03:31;;;;;;;9.50;3.40;;;;;;;13.12;84.79;98988.84;433857;1270;108628;-41
2023/09/23 23:13:38;;;;;;;5.30;2.80;;;;;;;12.95;84.82;98995.20;434199;1258;99257;-42
2023/09/23 23:23:46;;;;;;;8.40;3.50;;;;;;;12.81;84.78;98985.13;434222;1258;107731;-41
2023/09/23 23:33:53;;;;;;;5.60;2.50;;;;;;;12.75;84.66;98988.98;434046;1258;99324;-41
2023/09/23 23:44:00;;;;;;;8.70;3.40;;;;;;;12.74;84.80;99000.27;434032;1258;112826;-42
2023/09/23 23:54:07;;;;;;;7.60;3.30;;;;;;;12.53;84.61;99020.77;434213;1258;108245;-41
